Time;durP1;ratioP1;P1;durP2;ratioP2;P2;SDS_P1;SDS_P2;PMS_P1;PMS_P2;Temp;Humidity;BMP_temperature;BMP_pressure;BME280_temperature;BME280_humidity;BME280_pressure;Samples;Min_cycle;Max_cycle;Signal;HPM_P1;HPM_P2
2022/05/06 00:02:08;;;;;;;5.55;1.67;;;;;;;21.60;39.45;101579.84;4992934;28;20025;-52
2022/05/06 00:04:34;;;;;;;6.43;1.67;;;;;;;21.76;40.61;101583.47;4993968;28;20065;-54
2022/05/06 00:07:01;;;;;;;4.13;1.35;;;;;;;21.85;38.44;101581.06;4984365;28;20038;-53
2022/05/06 00:09:27;;;;;;;4.10;1.35;;;;;;;21.97;37.57;101587.13;4984114;28;20091;-53
2022/05/06 00:11:53;;;;;;;6.43;1.50;;;;;;;21.49;40.91;101582.75;4982297;28;20035;-54
2022/05/06 00:14:20;;;;;;;5.93;1.50;;;;;;;21.18;42.90;101585.19;4992462;28;20045;-53
2022/05/06 00:16:46;;;;;;;5.60;1.60;;;;;;;21.08;42.23;101585.91;4976416;28;20439;-54
2022/05/06 00:19:13;;;;;;;8.77;1.92;;;;;;;20.58;43.53;101594.34;4980067;28;20027;-51
2022/05/06 00:21:39;;;;;;;5.35;1.52;;;;;;;20.93;42.68;101601.25;4984979;28;20030;-52
2022/05/06 00:24:06;;;;;;;5.40;2.17;;;;;;;20.71;43.99;101609.44;4974797;28;20038;-52
2022/05/06 00:26:32;;;;;;;5.20;1.83;;;;;;;20.76;45.23;101607.59;5013510;28;20546;-52
2022/05/06 00:28:58;;;;;;;11.40;2.33;;;;;;;20.61;44.72;101615.63;5002438;23;20053;-56
2022/05/06 00:31:25;;;;;;;6.97;2.10;;;;;;;20.56;45.72;101608.22;5007736;28;20058;-54
2022/05/06 00:33:51;;;;;;;5.45;1.70;;;;;;;20.58;46.48;101616.13;5011642;28;20042;-54
2022/05/06 00:36:17;;;;;;;7.00;1.38;;;;;;;20.63;45.29;101608.00;5007992;28;20030;-53
2022/05/06 00:38:43;;;;;;;12.35;2.20;;;;;;;20.27;47.02;101607.56;5020100;28;20382;-54
2022/05/06 00:41:10;;;;;;;7.70;2.47;;;;;;;20.03;48.11;101606.13;5012437;28;20034;-55
2022/05/06 00:43:42;;;;;;;7.32;2.22;;;;;;;19.97;47.90;101601.69;5012330;28;20041;-56
2022/05/06 00:46:15;;;;;;;7.07;2.10;;;;;;;20.06;48.43;101596.66;5012750;28;20033;-56
2022/05/06 00:48:44;;;;;;;10.02;2.13;;;;;;;19.51;49.33;101606.41;4993629;28;20030;-57
2022/05/06 00:51:11;;;;;;;10.45;2.50;;;;;;;19.36;49.84;101611.56;4993295;28;20030;-56
2022/05/06 00:53:39;;;;;;;10.00;2.10;;;;;;;19.47;49.64;101614.22;4999967;28;20096;-57
2022/05/06 00:56:09;;;;;;;9.43;2.08;;;;;;;19.17;50.74;101619.13;5023260;28;20378;-56
2022/05/06 00:58:35;;;;;;;12.07;2.60;;;;;;;19.10;51.50;101619.28;5028612;28;20017;-56
2022/05/06 01:01:03;;;;;;;9.73;2.65;;;;;;;19.09;51.10;101614.06;5031278;28;20033;-51
2022/05/06 01:03:30;;;;;;;6.75;2.72;;;;;;;19.36;50.82;101608.84;5030706;28;20117;-51
2022/05/06 01:05:57;;;;;;;7.68;1.88;;;;;;;19.10;50.84;101613.00;5027406;28;20061;-53
2022/05/06 01:08:23;;;;;;;10.63;2.42;;;;;;;19.20;51.50;101610.47;5017007;28;20029;-54
2022/05/06 01:10:50;;;;;;;5.93;1.63;;;;;;;19.25;50.40;101616.81;5030492;28;20037;-56
2022/05/06 01:13:18;;;;;;;8.13;2.10;;;;;;;19.29;51.27;101609.03;5023461;28;20025;-54
2022/05/06 01:15:45;;;;;;;9.55;2.22;;;;;;;19.00;52.10;101605.53;5013113;28;20117;-56
2022/05/06 01:18:14;;;;;;;6.50;2.15;;;;;;;19.19;51.49;101617.81;5027601;28;20436;-56
2022/05/06 01:20:46;;;;;;;7.00;1.73;;;;;;;19.48;50.68;101605.00;5031627;28;20428;-56
2022/05/06 01:23:12;;;;;;;4.18;1.65;;;;;;;19.78;48.50;101601.97;5013459;28;20415;-56
2022/05/06 01:25:39;;;;;;;7.28;1.65;;;;;;;19.77;48.79;101597.63;5016658;28;20021;-56
2022/05/06 01:28:06;;;;;;;6.00;1.70;;;;;;;19.97;48.25;101591.63;5018103;28;20071;-56
2022/05/06 01:30:35;;;;;;;6.90;2.00;;;;;;;19.91;48.30;101594.53;5012876;28;20034;-56
2022/05/06 01:33:14;;;;;;;4.97;1.55;;;;;;;19.53;49.13;101599.63;5012683;28;20492;-56
2022/05/06 01:35:51;;;;;;;7.43;2.00;;;;;;;19.31;50.53;101595.19;5047293;28;20051;-56
2022/05/06 01:38:24;;;;;;;6.82;2.28;;;;;;;18.97;52.26;101598.69;5029863;28;20457;-56
2022/05/06 01:40:59;;;;;;;9.88;2.30;;;;;;;18.94;51.83;101599.19;5025250;28;20064;-56
2022/05/06 01:43:31;;;;;;;7.80;2.00;;;;;;;18.99;52.33;101601.19;5029310;28;20025;-56
2022/05/06 01:45:57;;;;;;;9.65;3.13;;;;;;;18.55;52.95;101595.41;5052306;28;20033;-56
2022/05/06 01:48:25;;;;;;;8.13;2.10;;;;;;;18.66;53.21;101594.56;5039364;28;20036;-56
2022/05/06 01:50:53;;;;;;;6.15;1.73;;;;;;;18.54;53.38;101592.94;5031927;28;20059;-56
2022/05/06 01:53:19;;;;;;;3.75;2.03;;;;;;;18.63;53.44;101588.78;5016977;28;20095;-55
2022/05/06 01:55:46;;;;;;;7.88;2.15;;;;;;;18.51;53.63;101599.66;5031996;28;20117;-55
2022/05/06 01:58:13;;;;;;;7.45;1.98;;;;;;;18.45;54.08;101596.03;5024600;28;20014;-55
2022/05/06 02:00:39;;;;;;;6.68;1.95;;;;;;;18.65;53.45;101608.34;5039332;28;20029;-55
2022/05/06 02:05:16;;;;;;;4.80;2.08;;;;;;;18.08;54.50;101606.34;5022550;28;20051;-55
2022/05/06 02:05:52;;;;;;;6.85;1.67;;;;;;;18.42;54.13;101603.81;5041714;28;20056;-55
2022/05/06 02:08:18;;;;;;;6.28;1.88;;;;;;;18.49;53.61;101607.22;5015333;28;20113;-55
2022/05/06 02:10:44;;;;;;;9.25;2.85;;;;;;;18.53;54.05;101605.66;5012342;28;20022;-55
2022/05/06 02:13:10;;;;;;;11.45;2.25;;;;;;;17.97;55.21;101609.88;5011787;28;20022;-55
2022/05/06 02:15:38;;;;;;;8.07;2.35;;;;;;;18.03;55.63;101610.81;5012239;28;20057;-55
2022/05/06 02:18:04;;;;;;;11.40;2.20;;;;;;;17.76;56.25;101622.13;5012614;28;20026;-55
2022/05/06 02:20:31;;;;;;;9.88;2.17;;;;;;;17.86;56.27;101618.84;5040880;28;20127;-55
2022/05/06 02:22:57;;;;;;;9.10;2.40;;;;;;;18.17;55.33;101618.47;5013972;28;20030;-55
2022/05/06 02:25:23;;;;;;;8.25;1.98;;;;;;;18.33;54.85;101611.50;5014333;28;20042;-55
2022/05/06 02:27:50;;;;;;;4.43;1.67;;;;;;;18.38;54.42;101618.91;5011788;28;20087;-55
2022/05/06 02:33:13;;;;;;;8.95;1.98;;;;;;;18.27;54.17;101620.59;5034770;28;20095;-56
2022/05/06 02:35:41;;;;;;;8.20;1.67;;;;;;;18.18;54.62;101628.25;5026439;28;20061;-55
2022/05/06 02:38:09;;;;;;;6.07;2.10;;;;;;;18.41;54.13;101621.13;5015531;28;20057;-55
2022/05/06 02:40:37;;;;;;;6.43;1.50;;;;;;;18.26;54.27;101626.22;5014934;28;20036;-56
2022/05/06 02:43:04;;;;;;;8.13;2.15;;;;;;;18.47;54.03;101628.31;5028850;28;20464;-56
2022/05/06 02:45:31;;;;;;;7.18;1.73;;;;;;;18.56;53.17;101631.47;5011942;28;20034;-56
2022/05/06 02:47:57;;;;;;;6.30;1.70;;;;;;;18.38;53.88;101632.47;5031577;28;20466;-56
2022/05/06 02:50:25;;;;;;;7.38;2.22;;;;;;;17.80;56.12;101639.56;5028573;28;20145;-55
2022/05/06 02:52:52;;;;;;;10.40;2.50;;;;;;;17.46;57.14;101638.41;5023391;28;20063;-56
2022/05/06 02:55:19;;;;;;;5.80;2.50;;;;;;;17.28;58.00;101642.03;5016146;28;20313;-56
2022/05/06 02:57:45;;;;;;;6.93;2.28;;;;;;;17.26;57.90;101649.53;5013097;28;20176;-56
2022/05/06 03:00:12;;;;;;;8.07;2.88;;;;;;;17.09;58.70;101643.13;5011900;28;20438;-56
2022/05/06 03:02:40;;;;;;;8.55;2.20;;;;;;;16.88;59.50;101648.00;5044762;28;20484;-56
2022/05/06 03:05:07;;;;;;;6.15;2.20;;;;;;;16.70;59.98;101647.16;5054639;28;20469;-56
2022/05/06 03:07:33;;;;;;;9.88;2.15;;;;;;;16.94;59.35;101642.75;5032721;28;20395;-56
2022/05/06 03:09:59;;;;;;;9.05;2.38;;;;;;;16.31;61.51;101643.84;5028557;28;20064;-56
2022/05/06 03:12:26;;;;;;;8.40;2.30;;;;;;;16.44;61.31;101657.25;5032316;28;20026;-56
2022/05/06 03:14:53;;;;;;;8.05;2.15;;;;;;;16.45;61.45;101653.47;5034527;28;20041;-56
2022/05/06 03:17:19;;;;;;;8.07;2.40;;;;;;;16.53;61.49;101650.47;5031309;28;20033;-56
2022/05/06 03:19:46;;;;;;;10.85;2.08;;;;;;;16.48;61.59;101650.31;5023585;28;20032;-56
2022/05/06 03:22:13;;;;;;;6.07;1.92;;;;;;;16.38;61.78;101647.34;5054432;28;20025;-56
2022/05/06 03:24:39;;;;;;;12.60;2.50;;;;;;;16.22;62.23;101650.63;5038697;28;20452;-55
2022/05/06 03:27:59;;;;;;;9.15;2.10;;;;;;;15.94;62.98;101656.50;5025689;28;20076;-55
2022/05/06 03:29:52;;;;;;;10.77;2.80;;;;;;;15.82;63.50;101659.06;5014643;28;20057;-55
2022/05/06 03:32:18;;;;;;;10.75;2.90;;;;;;;15.70;63.89;101660.84;5031525;28;20573;-56
2022/05/06 03:34:45;;;;;;;7.57;2.30;;;;;;;15.63;64.22;101652.81;5028898;28;20033;-55
2022/05/06 03:37:11;;;;;;;7.93;2.35;;;;;;;15.70;64.06;101650.03;5014656;28;20018;-56
2022/05/06 03:39:37;;;;;;;13.13;3.75;;;;;;;15.80;64.01;101661.19;5023463;28;20056;-56
2022/05/06 03:42:04;;;;;;;8.82;3.10;;;;;;;15.26;65.89;101667.97;5040282;28;20030;-55
2022/05/06 03:44:30;;;;;;;7.00;2.25;;;;;;;15.28;65.84;101668.59;5049212;28;20039;-55
2022/05/06 03:46:56;;;;;;;7.50;2.22;;;;;;;15.25;66.06;101675.22;5054277;28;20029;-55
2022/05/06 03:49:23;;;;;;;5.60;2.50;;;;;;;15.43;65.56;101681.75;5054766;28;20565;-55
2022/05/06 03:51:49;;;;;;;5.53;1.95;;;;;;;15.34;66.22;101686.59;5054642;28;20396;-55
2022/05/06 03:54:16;;;;;;;6.10;2.15;;;;;;;15.37;65.92;101682.63;5053963;28;20112;-56
2022/05/06 03:56:42;;;;;;;21.90;2.85;;;;;;;15.35;66.18;101688.25;5040254;28;20041;-55
2022/05/06 03:59:12;;;;;;;8.52;2.20;;;;;;;15.62;65.12;101690.78;5038826;28;20026;-55
2022/05/06 04:01:38;;;;;;;7.93;2.40;;;;;;;15.58;65.48;101687.69;5014492;28;20109;-55
2022/05/06 04:04:05;;;;;;;12.10;2.70;;;;;;;15.63;65.49;101677.09;5013793;28;20044;-55
2022/05/06 04:06:33;;;;;;;10.82;2.55;;;;;;;15.72;65.22;101686.59;5014313;28;20026;-55
2022/05/06 04:09:00;;;;;;;7.00;2.17;;;;;;;15.69;65.44;101695.09;5014178;28;20124;-56
2022/05/06 04:11:26;;;;;;;8.18;2.05;;;;;;;15.86;65.00;101690.00;5014009;28;20034;-55
2022/05/06 04:13:52;;;;;;;8.18;2.47;;;;;;;15.71;65.20;101686.78;5013454;28;20116;-55
2022/05/06 04:16:18;;;;;;;10.10;2.35;;;;;;;15.72;65.57;101683.06;5014201;28;20117;-55
2022/05/06 04:18:45;;;;;;;9.63;2.50;;;;;;;15.45;66.05;101687.78;5013831;28;20430;-55
2022/05/06 04:23:55;;;;;;;7.32;2.67;;;;;;;15.34;66.11;101696.56;5033702;28;20036;-55
2022/05/06 04:26:21;;;;;;;9.95;2.58;;;;;;;15.28;66.59;101699.09;5033812;28;20049;-55
2022/05/06 04:28:48;;;;;;;9.40;2.90;;;;;;;15.28;66.54;101695.56;5033381;28;20037;-55
2022/05/06 04:31:14;;;;;;;10.57;2.72;;;;;;;15.43;66.14;101709.56;5035180;28;20041;-55
2022/05/06 04:33:41;;;;;;;8.02;2.05;;;;;;;15.27;66.80;101697.44;5025399;28;20034;-56
2022/05/06 04:36:07;;;;;;;5.22;2.08;;;;;;;15.31;66.62;101697.81;5013727;28;20037;-55
2022/05/06 04:38:34;;;;;;;5.85;2.00;;;;;;;15.32;66.79;101704.84;5013641;28;20061;-55
2022/05/06 04:41:01;;;;;;;14.20;2.72;;;;;;;15.44;66.51;101713.94;5025594;28;20104;-55
2022/05/06 04:43:28;;;;;;;8.70;2.63;;;;;;;15.61;65.96;101711.53;5030540;28;20538;-55
2022/05/06 04:45:55;;;;;;;10.75;3.03;;;;;;;15.55;66.62;101713.25;5014113;28;20117;-55
2022/05/06 04:48:22;;;;;;;10.80;2.65;;;;;;;15.50;66.69;101721.16;5013159;28;20932;-55
2022/05/06 04:50:49;;;;;;;11.65;3.08;;;;;;;15.58;66.61;101723.59;5013377;28;20033;-55
2022/05/06 04:53:16;;;;;;;7.95;2.45;;;;;;;15.39;67.72;101721.84;5012462;28;20029;-55
2022/05/06 04:55:46;;;;;;;7.90;2.38;;;;;;;15.36;68.09;101727.66;5012988;28;20467;-55
2022/05/06 04:58:14;;;;;;;10.35;2.08;;;;;;;15.55;67.15;101731.31;5016525;28;20029;-56
2022/05/06 05:00:41;;;;;;;4.38;1.60;;;;;;;15.49;67.09;101727.59;5013118;28;20044;-56
2022/05/06 05:03:07;;;;;;;8.00;1.70;;;;;;;15.57;66.43;101727.34;5012904;28;20490;-56
2022/05/06 05:05:34;;;;;;;4.90;1.40;;;;;;;15.76;66.24;101730.13;5012803;28;20029;-55
2022/05/06 05:08:00;;;;;;;5.63;1.90;;;;;;;15.76;66.06;101738.22;5013166;28;20033;-55
2022/05/06 05:10:26;;;;;;;3.30;1.50;;;;;;;16.00;65.36;101726.66;5015783;28;20026;-55
2022/05/06 05:12:53;;;;;;;4.18;1.27;;;;;;;16.02;65.51;101724.53;5016053;28;20367;-55
2022/05/06 05:15:19;;;;;;;6.38;1.92;;;;;;;16.13;64.91;101730.28;5017478;28;20037;-55
2022/05/06 05:17:47;;;;;;;3.22;1.17;;;;;;;16.17;63.76;101731.50;5046804;28;20028;-56
2022/05/06 05:20:14;;;;;;;6.40;1.38;;;;;;;16.04;65.13;101727.84;5050257;28;20036;-55
2022/05/06 05:22:41;;;;;;;7.88;2.35;;;;;;;16.10;65.32;101732.38;5032156;28;20474;-55
2022/05/06 05:25:09;;;;;;;7.97;2.00;;;;;;;15.75;66.71;101733.88;5016854;28;20108;-55
2022/05/06 05:27:39;;;;;;;6.35;1.90;;;;;;;15.85;66.16;101739.63;5018596;28;20029;-56
2022/05/06 05:30:08;;;;;;;3.83;1.67;;;;;;;15.80;66.45;101740.28;5031955;28;20068;-55
2022/05/06 05:32:34;;;;;;;6.97;1.77;;;;;;;15.89;66.07;101738.16;5025412;28;20037;-56
2022/05/06 05:35:01;;;;;;;4.78;1.70;;;;;;;15.93;65.38;101739.34;5042207;28;20112;-55
2022/05/06 05:37:27;;;;;;;7.88;2.03;;;;;;;15.98;64.89;101736.81;5025500;28;20025;-56
2022/05/06 05:39:54;;;;;;;4.60;1.63;;;;;;;16.01;65.30;101736.41;5031987;28;20056;-55
2022/05/06 05:42:21;;;;;;;6.57;1.40;;;;;;;15.96;65.44;101730.81;5032845;28;20105;-56
2022/05/06 05:50:18;;;;;;;8.93;2.72;;;;;;;15.27;68.67;101727.09;5012683;28;20049;-55
2022/05/06 05:52:45;;;;;;;7.40;2.50;;;;;;;15.43;68.21;101724.94;5012062;28;20026;-56
2022/05/06 05:55:12;;;;;;;7.07;2.03;;;;;;;15.45;67.81;101723.69;5046187;28;20108;-55
2022/05/06 05:57:38;;;;;;;7.75;2.25;;;;;;;15.04;69.27;101734.88;5045129;28;20475;-55
2022/05/06 06:00:05;;;;;;;5.15;1.85;;;;;;;15.22;68.64;101734.19;5012076;28;20026;-55
2022/05/06 06:02:31;;;;;;;6.75;2.50;;;;;;;15.26;68.67;101724.59;5012223;28;20029;-55
2022/05/06 06:04:58;;;;;;;6.90;2.60;;;;;;;15.20;69.07;101728.97;5012196;28;20029;-55
2022/05/06 06:07:24;;;;;;;7.60;2.47;;;;;;;15.08;69.51;101732.56;5012356;28;20069;-56
2022/05/06 06:09:51;;;;;;;7.90;2.58;;;;;;;15.06;69.69;101730.09;5012405;28;20040;-55
2022/05/06 06:12:17;;;;;;;6.80;2.50;;;;;;;15.12;69.83;101728.41;5011915;28;20383;-55
2022/05/06 06:14:43;;;;;;;7.40;2.03;;;;;;;15.07;70.28;101730.94;5013083;28;20637;-56
2022/05/06 06:17:10;;;;;;;6.35;2.03;;;;;;;14.88;70.91;101730.81;5010681;28;20038;-56
2022/05/06 06:19:36;;;;;;;5.35;2.13;;;;;;;14.88;70.82;101730.81;5032111;28;20016;-55
2022/05/06 06:22:02;;;;;;;4.85;2.28;;;;;;;14.88;71.07;101728.09;5051481;28;20371;-56
2022/05/06 06:24:30;;;;;;;5.55;2.03;;;;;;;15.04;70.70;101722.22;5034597;28;20040;-55
2022/05/06 06:26:58;;;;;;;7.00;1.70;;;;;;;15.16;70.48;101727.78;5031543;28;20080;-56
2022/05/06 06:29:24;;;;;;;4.88;2.40;;;;;;;15.20;70.17;101720.91;5031318;28;20434;-55
2022/05/06 06:31:50;;;;;;;3.90;1.80;;;;;;;15.04;70.96;101733.00;5026469;28;20038;-55
2022/05/06 06:34:17;;;;;;;5.22;1.85;;;;;;;15.20;70.85;101731.69;5012181;28;20033;-56
2022/05/06 06:36:43;;;;;;;7.03;1.88;;;;;;;15.19;70.55;101723.81;5047070;28;20025;-55
2022/05/06 06:39:09;;;;;;;3.58;2.10;;;;;;;15.08;70.82;101725.31;5054781;28;20128;-55
2022/05/06 06:41:35;;;;;;;3.38;2.00;;;;;;;15.20;70.65;101728.16;5055380;28;20022;-55
2022/05/06 06:44:01;;;;;;;3.78;1.42;;;;;;;15.25;69.81;101723.78;5054894;28;20078;-55
2022/05/06 06:46:27;;;;;;;4.65;1.45;;;;;;;15.16;70.50;101732.34;5055383;28;20436;-56
2022/05/06 06:48:54;;;;;;;3.90;1.25;;;;;;;15.34;69.75;101742.44;5044032;28;20057;-55
2022/05/06 06:51:20;;;;;;;2.80;1.25;;;;;;;15.22;70.21;101744.97;5015585;28;20028;-56
2022/05/06 06:53:48;;;;;;;3.17;1.40;;;;;;;15.18;70.11;101739.16;5015239;28;20741;-55
2022/05/06 06:56:14;;;;;;;2.53;1.08;;;;;;;15.16;70.61;101743.13;5015330;28;20033;-55
2022/05/06 06:58:40;;;;;;;2.83;0.98;;;;;;;15.13;70.35;101746.25;5015640;28;20121;-55
2022/05/06 07:01:07;;;;;;;2.08;1.10;;;;;;;15.22;70.27;101745.81;5015603;28;20017;-55
2022/05/06 07:03:33;;;;;;;2.63;1.25;;;;;;;15.16;70.44;101740.44;5015242;28;20029;-56
2022/05/06 07:14:15;;;;;;;1.60;1.45;;;;;;;15.34;69.95;101737.03;5035145;28;20047;-55
2022/05/06 07:16:41;;;;;;;1.30;1.20;;;;;;;15.22;70.21;101739.59;5034828;28;20462;-55
2022/05/06 07:19:07;;;;;;;1.92;1.35;;;;;;;15.05;70.81;101741.94;5034744;28;20072;-55
2022/05/06 07:21:34;;;;;;;2.35;1.73;;;;;;;15.14;70.50;101745.19;5034544;28;20036;-55
2022/05/06 07:24:00;;;;;;;4.07;2.22;;;;;;;15.17;70.14;101740.22;5020018;28;20544;-55
2022/05/06 07:26:27;;;;;;;4.78;2.22;;;;;;;15.12;70.64;101729.25;5014799;28;20030;-56
2022/05/06 07:28:53;;;;;;;2.53;1.80;;;;;;;15.19;70.28;101740.00;5014617;28;20054;-55
2022/05/06 07:31:23;;;;;;;2.67;1.55;;;;;;;15.25;69.92;101739.97;5014665;28;20103;-55
2022/05/06 07:33:49;;;;;;;2.58;1.30;;;;;;;15.18;69.93;101749.13;5014611;28;20572;-55
2022/05/06 07:36:15;;;;;;;2.38;1.30;;;;;;;15.09;70.11;101745.84;5014895;28;20079;-55
2022/05/06 07:38:42;;;;;;;1.73;0.90;;;;;;;15.01;70.54;101741.53;5015003;28;20427;-55
2022/05/06 07:41:08;;;;;;;2.08;0.93;;;;;;;14.73;71.63;101741.81;5015193;28;20026;-55
2022/05/06 07:43:34;;;;;;;1.23;0.90;;;;;;;14.90;70.65;101738.66;5014688;28;20465;-55
2022/05/06 07:46:00;;;;;;;1.35;0.70;;;;;;;14.85;70.95;101742.00;5014478;28;20028;-55
2022/05/06 07:48:27;;;;;;;0.63;0.57;;;;;;;14.68;71.42;101740.81;5014652;28;20105;-55
2022/05/06 07:50:53;;;;;;;0.60;0.60;;;;;;;14.63;71.66;101740.59;5013634;28;20041;-55
2022/05/06 07:53:19;;;;;;;1.63;0.70;;;;;;;14.75;71.38;101741.59;5012507;28;20057;-55
2022/05/06 07:55:46;;;;;;;0.90;0.40;;;;;;;14.73;71.46;101738.31;5014215;28;20030;-55
2022/05/06 07:58:12;;;;;;;0.55;0.40;;;;;;;14.72;71.04;101723.19;5014979;28;20104;-55
2022/05/06 08:00:38;;;;;;;1.27;0.60;;;;;;;14.55;72.32;101720.13;5010315;28;20038;-54
2022/05/06 08:05:56;;;;;;;1.02;0.68;;;;;;;14.70;71.53;101727.94;5014520;28;20068;-55
2022/05/06 08:08:26;;;;;;;2.38;1.17;;;;;;;14.71;71.82;101730.44;5014333;28;20037;-55
2022/05/06 08:10:54;;;;;;;4.43;1.25;;;;;;;14.73;72.03;101733.75;5014077;28;20455;-55
2022/05/06 08:13:21;;;;;;;1.73;1.20;;;;;;;14.89;70.46;101740.53;5047993;28;20032;-55
2022/05/06 08:15:49;;;;;;;2.90;1.13;;;;;;;14.68;72.30;101744.31;5014582;28;20022;-55
2022/05/06 08:18:16;;;;;;;4.80;1.67;;;;;;;14.63;72.45;101744.13;5019484;23;20046;-55
2022/05/06 08:20:42;;;;;;;2.22;1.25;;;;;;;14.71;72.63;101740.38;5013183;28;20030;-55
2022/05/06 08:23:08;;;;;;;1.98;1.08;;;;;;;14.85;71.95;101728.50;5013711;28;20033;-55
2022/05/06 08:25:35;;;;;;;1.88;1.38;;;;;;;14.76;72.28;101724.38;5013775;28;20114;-55
2022/05/06 08:28:01;;;;;;;3.08;1.55;;;;;;;14.83;72.28;101721.69;5013847;28;20033;-55
2022/05/06 08:30:27;;;;;;;5.18;1.33;;;;;;;14.83;71.52;101724.41;5013445;28;20022;-55
2022/05/06 08:32:53;;;;;;;1.90;0.90;;;;;;;14.88;71.82;101732.63;5013339;28;20021;-55
2022/05/06 08:35:20;;;;;;;2.17;0.98;;;;;;;14.81;72.77;101739.94;5013866;28;20477;-55
2022/05/06 08:37:47;;;;;;;1.20;1.10;;;;;;;14.81;72.71;101734.53;5013747;28;20037;-55
2022/05/06 08:40:22;;;;;;;2.83;1.38;;;;;;;14.78;72.90;101727.72;5013548;28;20567;-55
2022/05/06 08:42:50;;;;;;;1.40;0.93;;;;;;;14.89;72.31;101737.84;5013266;28;20034;-55
2022/05/06 08:50:51;;;;;;;1.05;0.95;;;;;;;14.92;72.19;101737.41;5013916;28;20044;-55
2022/05/06 08:53:17;;;;;;;0.90;0.80;;;;;;;14.81;72.48;101738.06;5013126;28;20029;-55
2022/05/06 08:55:44;;;;;;;1.33;0.93;;;;;;;14.76;72.90;101727.09;5013438;28;20088;-55
2022/05/06 08:58:10;;;;;;;1.95;1.13;;;;;;;14.85;72.45;101731.22;5013478;28;20064;-55
2022/05/06 09:00:36;;;;;;;1.98;1.00;;;;;;;14.87;72.61;101731.00;5013461;28;20030;-55
2022/05/06 09:03:02;;;;;;;2.35;1.00;;;;;;;14.94;72.13;101731.81;5012804;28;20018;-54
2022/05/06 09:05:29;;;;;;;1.40;1.00;;;;;;;14.91;72.20;101724.97;5012392;28;20088;-54
2022/05/06 09:08:04;;;;;;;1.63;0.82;;;;;;;14.94;72.01;101721.03;5012879;28;20097;-55
2022/05/06 09:10:31;;;;;;;1.55;0.90;;;;;;;14.98;72.20;101706.06;5013190;28;20030;-55
2022/05/06 09:13:02;;;;;;;2.13;0.80;;;;;;;15.02;71.34;101712.69;4997639;28;20117;-55
2022/05/06 09:18:23;;;;;;;0.90;0.50;;;;;;;14.95;72.55;101720.81;4993290;28;20053;-55
2022/05/06 09:20:50;;;;;;;0.73;0.60;;;;;;;14.97;72.12;101716.03;4993413;28;20038;-55
2022/05/06 09:23:24;;;;;;;1.30;0.70;;;;;;;15.08;72.18;101711.84;4983425;28;20043;-55
2022/05/06 09:25:52;;;;;;;1.20;0.50;;;;;;;15.19;71.52;101702.25;4973813;28;20126;-55
2022/05/06 09:28:27;;;;;;;1.25;0.60;;;;;;;15.04;70.96;101691.72;4973746;28;20026;-55
2022/05/06 09:31:02;;;;;;;1.08;0.50;;;;;;;14.88;72.26;101694.91;4973897;28;20721;-55
2022/05/06 09:33:30;;;;;;;0.55;0.40;;;;;;;14.94;71.80;101680.59;4973359;28;20038;-55
2022/05/06 09:35:56;;;;;;;1.45;0.50;;;;;;;15.05;72.03;101686.13;4973826;28;20026;-55
2022/05/06 09:38:25;;;;;;;0.90;0.50;;;;;;;15.00;72.07;101687.81;4975524;28;20026;-55
2022/05/06 09:40:52;;;;;;;1.42;0.65;;;;;;;14.94;72.05;101686.81;4993048;28;20030;-55
2022/05/06 09:43:19;;;;;;;1.58;0.68;;;;;;;15.03;71.51;101685.50;4992713;28;20065;-56
2022/05/06 09:45:46;;;;;;;2.10;0.60;;;;;;;15.13;71.63;101686.94;4992847;28;20026;-55
2022/05/06 09:48:14;;;;;;;1.08;0.73;;;;;;;15.18;70.88;101695.19;4992760;28;20479;-54
2022/05/06 09:50:43;;;;;;;1.67;0.77;;;;;;;15.19;71.04;101702.25;4992699;28;20030;-56
2022/05/06 09:53:15;;;;;;;0.82;0.57;;;;;;;15.19;70.54;101699.53;4992373;28;20117;-55
2022/05/06 09:55:47;;;;;;;1.52;0.60;;;;;;;15.08;71.54;101689.44;4993293;28;20026;-56
2022/05/06 09:58:15;;;;;;;1.05;0.60;;;;;;;15.09;71.12;101699.19;4992708;28;20423;-54
2022/05/06 10:00:42;;;;;;;2.55;0.95;;;;;;;15.12;71.10;101691.50;4990513;28;20038;-55
2022/05/06 10:03:09;;;;;;;1.83;0.70;;;;;;;15.09;71.32;101685.69;4992606;28;20026;-56
2022/05/06 10:05:37;;;;;;;1.60;0.75;;;;;;;15.09;71.87;101685.69;4992672;28;20387;-56
2022/05/06 10:08:14;;;;;;;1.52;0.70;;;;;;;15.05;71.78;101691.53;4992557;28;20050;-56
2022/05/06 10:10:55;;;;;;;2.00;0.82;;;;;;;15.03;71.50;101682.81;4992748;28;20026;-56
2022/05/06 10:13:24;;;;;;;2.38;0.80;;;;;;;15.20;69.68;101683.13;4994028;28;20033;-55
2022/05/06 10:15:52;;;;;;;1.45;0.80;;;;;;;15.15;70.57;101684.81;4996801;28;20022;-56
2022/05/06 10:18:41;;;;;;;1.52;0.80;;;;;;;15.08;70.77;101684.88;4996339;28;20038;-56
2022/05/06 10:21:11;;;;;;;1.70;0.82;;;;;;;15.05;71.35;101685.31;4996422;28;20022;-56
2022/05/06 10:23:52;;;;;;;1.30;0.85;;;;;;;15.15;71.32;101690.22;4996275;28;20368;-56
2022/05/06 10:26:34;;;;;;;2.60;1.20;;;;;;;14.88;72.61;101687.66;4996542;28;20026;-55
2022/05/06 10:34:54;;;;;;;2.85;1.13;;;;;;;14.92;71.73;101691.56;4996203;28;20109;-56
2022/05/06 10:37:21;;;;;;;1.73;1.15;;;;;;;15.01;71.56;101682.22;4996428;28;20032;-56
2022/05/06 10:39:47;;;;;;;3.83;1.40;;;;;;;14.98;71.59;101674.53;4996119;28;20456;-56
2022/05/06 10:42:17;;;;;;;6.28;1.92;;;;;;;15.00;71.85;101691.34;4976442;28;20117;-56
2022/05/06 10:44:44;;;;;;;5.22;2.67;;;;;;;15.15;71.78;101692.91;4975863;28;20025;-55
2022/05/06 10:47:13;;;;;;;5.45;2.30;;;;;;;15.09;71.53;101697.31;4975054;28;20131;-56
2022/05/06 10:49:39;;;;;;;3.72;1.70;;;;;;;15.04;71.60;101702.50;4976497;28;20070;-56
2022/05/06 10:52:14;;;;;;;4.80;1.58;;;;;;;15.04;71.74;101703.34;4976609;28;20033;-55
2022/05/06 10:55:03;;;;;;;3.13;1.67;;;;;;;15.04;70.97;101703.34;4976620;28;20203;-56
2022/05/06 10:57:53;;;;;;;3.30;1.88;;;;;;;15.07;71.32;101702.09;4976606;28;20400;-56
2022/05/06 11:00:21;;;;;;;4.18;1.90;;;;;;;15.14;71.28;101712.84;4976521;28;20077;-56
2022/05/06 11:02:48;;;;;;;2.95;1.80;;;;;;;15.13;71.55;101714.72;4976474;28;20027;-56
2022/05/06 11:05:16;;;;;;;3.83;1.85;;;;;;;15.15;70.92;101711.78;4976223;28;20034;-56
2022/05/06 11:07:44;;;;;;;3.53;1.90;;;;;;;15.08;71.34;101713.69;4976483;28;20035;-55
2022/05/06 11:10:22;;;;;;;2.45;1.27;;;;;;;15.17;70.14;101709.72;4976603;28;20439;-56
2022/05/06 11:12:50;;;;;;;1.80;1.33;;;;;;;15.21;70.73;101711.78;4984125;28;20054;-55
2022/05/06 11:15:19;;;;;;;2.15;1.33;;;;;;;15.13;70.84;101709.31;4991755;28;20109;-56
2022/05/06 11:17:46;;;;;;;2.88;1.70;;;;;;;15.12;69.99;101704.16;4989093;28;20057;-55
2022/05/06 11:20:18;;;;;;;4.40;1.50;;;;;;;15.15;71.25;101715.31;5015011;28;20497;-55
2022/05/06 11:22:56;;;;;;;2.58;1.55;;;;;;;15.10;71.34;101711.59;5014962;28;20026;-55
2022/05/06 11:25:25;;;;;;;3.53;1.52;;;;;;;15.04;71.78;101705.22;5014984;28;20481;-55
2022/05/06 11:27:53;;;;;;;2.28;1.45;;;;;;;15.00;71.64;101704.81;5002825;28;20114;-55
2022/05/06 11:30:21;;;;;;;2.45;1.67;;;;;;;14.73;72.97;101704.09;4999509;28;20018;-55
2022/05/06 11:32:55;;;;;;;3.58;1.45;;;;;;;15.07;71.47;101698.56;5014377;28;20088;-55
2022/05/06 11:35:27;;;;;;;2.95;1.50;;;;;;;15.12;71.55;101702.28;5015155;28;20026;-55
2022/05/06 11:37:53;;;;;;;3.42;1.55;;;;;;;15.07;71.62;101696.69;4982144;28;20116;-55
2022/05/06 11:40:39;;;;;;;2.90;1.77;;;;;;;15.23;71.02;101700.78;4999438;28;20591;-55
2022/05/06 11:43:21;;;;;;;2.95;2.13;;;;;;;15.11;71.43;101695.25;4975586;28;20028;-55
2022/05/06 11:48:43;;;;;;;2.78;1.85;;;;;;;15.10;71.62;101692.72;4975704;28;20466;-56
2022/05/06 11:51:12;;;;;;;5.03;1.90;;;;;;;15.02;72.13;101700.03;4975296;28;20110;-55
2022/05/06 11:53:40;;;;;;;3.20;1.73;;;;;;;15.00;72.14;101685.97;4975201;28;20074;-55
2022/05/06 11:56:08;;;;;;;4.72;2.03;;;;;;;15.01;72.09;101686.78;4975514;28;20046;-56
2022/05/06 11:58:35;;;;;;;3.13;1.80;;;;;;;14.99;72.44;101687.00;4975731;28;20022;-55
2022/05/06 12:01:01;;;;;;;3.83;1.92;;;;;;;15.14;71.94;101689.41;4980053;28;20455;-56
2022/05/06 12:03:28;;;;;;;4.88;1.90;;;;;;;15.07;72.17;101687.78;4978748;28;20034;-55
2022/05/06 12:06:03;;;;;;;7.38;2.55;;;;;;;15.14;72.29;101692.09;4996452;28;20030;-54
2022/05/06 12:08:32;;;;;;;3.67;2.35;;;;;;;14.91;73.43;101679.13;5006254;28;20448;-54